Time;durP1;ratioP1;P1;durP2;ratioP2;P2;SDS_P1;SDS_P2;PMS_P1;PMS_P2;Temp;Humidity;BMP_temperature;BMP_pressure;BME280_temperature;BME280_humidity;BME280_pressure;Samples;Min_cycle;Max_cycle;Signal;HPM_P1;HPM_P2
2023/04/13 00:02:19;;;;;;;;;;;;;;;10.67;41.07;98920.75;4989160;28;19918;-89
2023/04/13 00:04:45;;;;;;;;;;;;;;;10.66;40.67;98921.66;4990801;28;19913;-89
2023/04/13 00:07:13;;;;;;;;;;;;;;;10.60;40.79;98921.81;4990694;28;20257;-90
2023/04/13 00:09:39;;;;;;;;;;;;;;;10.62;40.74;98922.66;4990497;28;20371;-89
2023/04/13 00:12:05;;;;;;;;;;;;;;;10.45;40.98;98921.34;4972507;28;19940;-90
2023/04/13 00:14:33;;;;;;;;;;;;;;;10.70;41.38;98931.22;4990942;28;19913;-89
2023/04/13 00:17:01;;;;;;;;;;;;;;;10.64;41.26;98934.03;4985582;28;20352;-91
2023/04/13 00:19:27;;;;;;;;;;;;;;;10.63;40.95;98927.88;4971237;28;19914;-90
2023/04/13 00:21:53;;;;;;;;;;;;;;;10.48;41.30;98931.78;4971402;28;20442;-90
2023/04/13 00:24:18;;;;;;;;;;;;;;;10.42;41.33;98931.09;4972037;28;19910;-91
2023/04/13 00:26:44;;;;;;;;;;;;;;;10.47;41.44;98939.75;4970565;28;19918;-89
2023/04/13 00:29:10;;;;;;;;;;;;;;;10.47;42.63;98937.13;4973816;28;19925;-90
2023/04/13 00:31:36;;;;;;;;;;;;;;;10.34;42.05;98937.44;4973414;28;19918;-89
2023/04/13 00:34:02;;;;;;;;;;;;;;;10.20;42.08;98944.81;4961320;28;20507;-89
2023/04/13 00:36:27;;;;;;;;;;;;;;;10.08;43.19;98942.47;4970085;28;20012;-89
2023/04/13 00:38:53;;;;;;;;;;;;;;;9.65;43.44;98947.00;4973388;28;19925;-89
2023/04/13 00:41:19;;;;;;;;;;;;;;;9.90;43.63;98942.03;4959478;28;20307;-90
2023/04/13 00:43:44;;;;;;;;;;;;;;;9.84;43.48;98943.03;4973670;28;20384;-89
2023/04/13 00:46:10;;;;;;;;;;;;;;;9.78;42.53;98934.44;4973139;28;19914;-91
2023/04/13 00:48:35;;;;;;;;;;;;;;;9.77;42.32;98938.81;4956512;28;20396;-91
2023/04/13 00:51:01;;;;;;;;;;;;;;;9.84;43.04;98945.69;4973999;28;19996;-91
2023/04/13 00:53:28;;;;;;;;;;;;;;;9.75;42.79;98943.25;4973986;28;19914;-89
2023/04/13 00:55:54;;;;;;;;;;;;;;;9.62;43.77;98936.53;4955842;28;19922;-90
2023/04/13 00:58:20;;;;;;;;;;;;;;;9.53;43.38;98939.38;4973913;28;20367;-91
2023/04/13 01:00:46;;;;;;;;;;;;;;;9.62;43.66;98944.44;4973443;28;19918;-91
2023/04/13 01:03:12;;;;;;;;;;;;;;;9.70;43.94;98945.16;4973431;28;19997;-90
2023/04/13 01:05:53;;;;;;;;;;;;;;;9.65;44.65;98963.69;4973698;28;20012;-89
2023/04/13 01:08:38;;;;;;;;;;;;;;;9.72;43.72;98960.91;4956235;28;19914;-89
2023/04/13 01:11:06;;;;;;;;;;;;;;;9.52;44.37;98962.22;4973626;28;19918;-89
2023/04/13 01:13:31;;;;;;;;;;;;;;;9.55;44.41;98967.41;4974411;28;19960;-90
2023/04/13 01:16:02;;;;;;;;;;;;;;;9.51;45.69;98968.38;4973488;28;19960;-90
2023/04/13 01:18:29;;;;;;;;;;;;;;;9.43;44.77;98971.19;4974530;28;19922;-90
2023/04/13 01:20:55;;;;;;;;;;;;;;;9.33;44.36;98972.31;4975686;28;19917;-90
2023/04/13 01:23:34;;;;;;;;;;;;;;;9.38;44.41;98975.69;4993062;28;19909;-90
2023/04/13 01:26:01;;;;;;;;;;;;;;;9.17;45.18;98969.09;4975284;28;20383;-90
2023/04/13 01:28:27;;;;;;;;;;;;;;;9.10;45.05;98965.75;4975312;28;19913;-91
2023/04/13 01:30:54;;;;;;;;;;;;;;;8.96;46.21;98970.44;4993191;28;19914;-91
2023/04/13 01:33:20;;;;;;;;;;;;;;;8.61;47.19;98974.59;4993348;28;20260;-90
2023/04/13 01:35:49;;;;;;;;;;;;;;;8.74;47.91;98970.84;4990036;28;20016;-90
2023/04/13 01:38:14;;;;;;;;;;;;;;;8.69;48.25;98972.69;5006815;28;19976;-90
2023/04/13 01:40:40;;;;;;;;;;;;;;;8.61;48.28;98969.34;4988513;28;20299;-91
2023/04/13 01:43:08;;;;;;;;;;;;;;;8.45;49.27;98968.75;4988291;28;19949;-91
2023/04/13 01:45:42;;;;;;;;;;;;;;;8.52;48.68;98970.34;5003224;28;19917;-90
2023/04/13 01:48:07;;;;;;;;;;;;;;;8.19;49.80;98975.28;4974985;28;20379;-91
2023/04/13 01:50:35;;;;;;;;;;;;;;;8.09;50.18;98975.47;4977283;28;20034;-90
2023/04/13 01:53:06;;;;;;;;;;;;;;;8.07;50.01;98980.75;4978623;28;19914;-91
2023/04/13 01:55:36;;;;;;;;;;;;;;;8.13;50.28;98979.78;4982810;28;19968;-90
2023/04/13 01:58:03;;;;;;;;;;;;;;;8.16;50.31;98975.34;4974730;28;20375;-89
2023/04/13 02:00:32;;;;;;;;;;;;;;;8.28;49.92;98979.53;4991226;28;20008;-90
2023/04/13 02:02:57;;;;;;;;;;;;;;;8.24;50.49;98983.09;4992297;28;19914;-90
2023/04/13 02:05:22;;;;;;;;;;;;;;;7.83;50.77;98989.88;4992285;28;19921;-89
2023/04/13 02:07:48;;;;;;;;;;;;;;;7.80;51.03;98977.69;4981271;28;19918;-89
2023/04/13 02:10:15;;;;;;;;;;;;;;;7.91;51.46;98971.38;4986992;28;19949;-89
2023/04/13 02:12:40;;;;;;;;;;;;;;;7.80;51.65;98982.03;4988674;28;20327;-91
2023/04/13 02:15:06;;;;;;;;;;;;;;;7.63;51.41;98980.53;4991721;28;19924;-89
2023/04/13 02:17:31;;;;;;;;;;;;;;;7.44;52.71;98992.19;4991953;28;19918;-89
2023/04/13 02:19:57;;;;;;;;;;;;;;;7.47;53.24;98990.38;4975138;28;20371;-90
2023/04/13 02:22:22;;;;;;;;;;;;;;;7.40;53.18;98999.25;4990319;28;19921;-90
2023/04/13 02:24:48;;;;;;;;;;;;;;;7.24;53.58;98998.53;4973990;28;20310;-90
2023/04/13 02:27:14;;;;;;;;;;;;;;;7.48;53.33;99002.63;4991985;28;19913;-90
2023/04/13 02:29:40;;;;;;;;;;;;;;;7.13;53.89;99006.53;4992135;28;19914;-89
2023/04/13 02:32:06;;;;;;;;;;;;;;;7.24;54.05;98995.91;4988377;28;19918;-89
2023/04/13 02:34:32;;;;;;;;;;;;;;;7.35;53.06;98988.81;4991683;28;20454;-89
2023/04/13 02:36:59;;;;;;;;;;;;;;;7.18;53.12;98998.63;4990380;28;19959;-89
2023/04/13 02:39:24;;;;;;;;;;;;;;;7.09;53.86;99003.97;4991718;28;19947;-90
2023/04/13 02:41:50;;;;;;;;;;;;;;;6.95;54.15;98996.28;4991779;28;19921;-91
2023/04/13 02:44:15;;;;;;;;;;;;;;;7.04;54.06;98993.53;4969415;28;19925;-90
2023/04/13 02:46:40;;;;;;;;;;;;;;;6.90;53.71;99000.72;4990672;28;19914;-90
2023/04/13 02:49:07;;;;;;;;;;;;;;;6.42;55.46;99004.66;4991687;28;19913;-92
2023/04/13 02:51:33;;;;;;;;;;;;;;;6.36;55.30;99016.97;4974145;28;19917;-90
2023/04/13 02:54:01;;;;;;;;;;;;;;;6.39;56.04;99016.94;4988577;28;21131;-91
2023/04/13 02:56:27;;;;;;;;;;;;;;;6.43;55.74;99019.53;4990768;28;20491;-90
2023/04/13 02:58:52;;;;;;;;;;;;;;;6.53;55.87;99022.91;4989455;28;19914;-91
2023/04/13 03:01:18;;;;;;;;;;;;;;;6.58;55.69;99029.00;4973815;28;19913;-88
2023/04/13 03:03:44;;;;;;;;;;;;;;;6.51;55.87;99026.44;4991302;28;19913;-87
2023/04/13 03:06:09;;;;;;;;;;;;;;;6.63;55.01;99021.09;4988420;28;19918;-87
2023/04/13 03:08:35;;;;;;;;;;;;;;;6.15;56.47;99028.47;4978521;28;19984;-86
2023/04/13 03:11:01;;;;;;;;;;;;;;;6.23;57.08;99026.69;4991406;28;19979;-89
2023/04/13 03:13:26;;;;;;;;;;;;;;;6.33;56.83;99027.47;4988386;28;20379;-87
2023/04/13 03:15:51;;;;;;;;;;;;;;;6.42;56.56;99023.00;4981113;28;20309;-86
2023/04/13 03:18:17;;;;;;;;;;;;;;;6.37;56.27;99005.63;4989893;28;19993;-90
2023/04/13 03:20:43;;;;;;;;;;;;;;;6.53;56.54;99022.91;4985224;28;19949;-88
2023/04/13 03:23:08;;;;;;;;;;;;;;;6.58;56.47;99029.00;4990955;28;19921;-86
2023/04/13 03:25:34;;;;;;;;;;;;;;;6.45;57.08;99030.84;4990580;28;19917;-87
2023/04/13 03:27:59;;;;;;;;;;;;;;;6.36;57.40;99030.06;4989771;28;19913;-87
2023/04/13 03:30:24;;;;;;;;;;;;;;;6.33;57.92;99030.94;4985079;28;19928;-89
2023/04/13 03:32:51;;;;;;;;;;;;;;;6.37;58.57;99030.06;4981387;28;20372;-87
2023/04/13 03:35:16;;;;;;;;;;;;;;;6.43;58.92;99039.63;4982528;28;19918;-86
2023/04/13 03:37:43;;;;;;;;;;;;;;;6.44;59.51;99036.09;4972579;28;19914;-86
2023/04/13 03:40:09;;;;;;;;;;;;;;;6.21;60.03;99045.03;4978807;28;19960;-88
2023/04/13 03:42:35;;;;;;;;;;;;;;;6.06;59.88;99046.00;4989834;28;20368;-85
2023/04/13 03:45:00;;;;;;;;;;;;;;;6.21;59.12;99044.16;4984960;28;19917;-89
2023/04/13 03:47:26;;;;;;;;;;;;;;;6.28;57.60;99051.09;4991212;28;19918;-91
2023/04/13 03:49:51;;;;;;;;;;;;;;;6.24;57.45;99055.50;4978617;28;19918;-86
2023/04/13 03:52:16;;;;;;;;;;;;;;;6.33;57.30;99064.16;4971549;28;19914;-90
2023/04/13 03:54:42;;;;;;;;;;;;;;;6.24;57.23;99063.34;4978661;28;19921;-89
2023/04/13 03:57:07;;;;;;;;;;;;;;;6.37;56.48;99064.09;4990872;28;19925;-92
2023/04/13 03:59:32;;;;;;;;;;;;;;;6.34;56.19;99065.91;4973515;28;19914;-89
2023/04/13 04:01:58;;;;;;;;;;;;;;;6.37;55.98;99071.97;4988814;28;20284;-93
2023/04/13 04:04:23;;;;;;;;;;;;;;;6.34;56.47;99073.75;4991592;28;19922;-88
2023/04/13 04:06:50;;;;;;;;;;;;;;;6.47;57.06;99066.66;4979784;28;19968;-91
2023/04/13 04:09:15;;;;;;;;;;;;;;;6.61;55.46;99068.28;4979837;28;19918;-88
2023/04/13 04:11:41;;;;;;;;;;;;;;;6.50;54.95;99077.09;4978216;28;20008;-90
2023/04/13 04:14:06;;;;;;;;;;;;;;;6.77;54.74;99081.25;4978081;28;20445;-88
2023/04/13 04:16:31;;;;;;;;;;;;;;;6.87;55.35;99082.88;4984187;28;20403;-86
2023/04/13 04:18:57;;;;;;;;;;;;;;;7.07;54.40;99085.31;4976623;28;20643;-87
2023/04/13 04:21:22;;;;;;;;;;;;;;;7.52;53.96;99080.44;4989405;28;19913;-88
2023/04/13 04:23:47;;;;;;;;;;;;;;;8.12;52.48;99088.38;4983837;28;19918;-88
2023/04/13 04:26:13;;;;;;;;;;;;;;;8.36;50.35;99089.78;4984796;28;19922;-89
2023/04/13 04:28:38;;;;;;;;;;;;;;;8.11;51.87;99094.50;4976502;28;19961;-89
2023/04/13 04:31:05;;;;;;;;;;;;;;;8.19;51.58;99095.28;4980761;28;20399;-91
2023/04/13 04:33:31;;;;;;;;;;;;;;;8.25;51.13;99095.19;4972204;28;20431;-91
2023/04/13 04:35:57;;;;;;;;;;;;;;;8.38;50.34;99095.88;4987733;28;19929;-90
2023/04/13 04:38:23;;;;;;;;;;;;;;;8.58;51.13;99088.56;4986742;28;19937;-89
2023/04/13 04:40:49;;;;;;;;;;;;;;;8.74;50.31;99086.56;4993692;28;19972;-90
2023/04/13 04:43:14;;;;;;;;;;;;;;;8.63;48.46;99088.47;4987768;28;20004;-89
2023/04/13 04:45:42;;;;;;;;;;;;;;;8.92;49.14;99082.72;4979434;28;19918;-88
2023/04/13 04:48:07;;;;;;;;;;;;;;;9.35;47.57;99091.56;4980981;28;19914;-89
2023/04/13 04:50:33;;;;;;;;;;;;;;;9.50;47.85;99087.78;4964419;28;19929;-90
2023/04/13 04:52:58;;;;;;;;;;;;;;;9.48;47.71;99090.44;4974592;28;19914;-87
2023/04/13 04:55:24;;;;;;;;;;;;;;;9.56;46.91;99090.28;4975253;28;19936;-89
2023/04/13 04:57:49;;;;;;;;;;;;;;;9.84;46.12;99092.34;4990196;28;19913;-91
2023/04/13 05:00:16;;;;;;;;;;;;;;;10.00;44.64;99095.50;4976272;28;19947;-90
2023/04/13 05:02:42;;;;;;;;;;;;;;;10.06;44.43;99099.78;4972601;28;19922;-90
2023/04/13 05:05:07;;;;;;;;;;;;;;;10.11;44.34;99109.28;4977535;28;20379;-88
2023/04/13 05:07:33;;;;;;;;;;;;;;;10.08;44.40;99098.81;4955231;28;19914;-86
2023/04/13 05:09:58;;;;;;;;;;;;;;;10.28;43.76;99105.41;4984615;28;19972;-84
2023/04/13 05:12:24;;;;;;;;;;;;;;;10.46;41.72;99109.44;4974196;28;20326;-85
2023/04/13 05:14:49;;;;;;;;;;;;;;;10.71;42.50;99105.28;4987653;28;19925;-87
2023/04/13 05:17:18;;;;;;;;;;;;;;;10.97;42.72;99110.78;4979004;28;20377;-87
2023/04/13 05:19:44;;;;;;;;;;;;;;;11.12;42.15;99107.75;4976479;28;19918;-87
2023/04/13 05:22:10;;;;;;;;;;;;;;;11.33;43.94;99105.44;4975178;28;19921;-88
2023/04/13 05:24:35;;;;;;;;;;;;;;;11.42;44.35;99110.47;4986894;28;19926;-88
2023/04/13 05:27:01;;;;;;;;;;;;;;;11.46;43.22;99109.47;4973037;28;19918;-89
2023/04/13 05:29:26;;;;;;;;;;;;;;;11.60;41.78;99111.72;4976109;28;19914;-89
2023/04/13 05:31:51;;;;;;;;;;;;;;;11.90;40.10;99111.75;4973834;28;19906;-88
2023/04/13 05:34:17;;;;;;;;;;;;;;;11.98;39.17;99115.91;4986566;28;20416;-88
2023/04/13 05:36:42;;;;;;;;;;;;;;;12.22;38.12;99107.28;4976322;28;19925;-88
2023/04/13 05:39:09;;;;;;;;;;;;;;;12.21;38.72;99110.88;4991414;28;19945;-89
2023/04/13 05:41:35;;;;;;;;;;;;;;;12.52;38.83;99108.94;4992119;28;19912;-90
2023/04/13 05:44:00;;;;;;;;;;;;;;;12.93;38.36;99099.69;4990122;28;19910;-88
2023/04/13 05:46:26;;;;;;;;;;;;;;;13.28;37.37;99105.56;4991444;28;19913;-88
2023/04/13 05:48:52;;;;;;;;;;;;;;;13.54;36.75;99102.84;4977121;28;19918;-87
2023/04/13 05:51:17;;;;;;;;;;;;;;;14.01;36.92;99098.47;4990659;28;19983;-87
2023/04/13 05:53:42;;;;;;;;;;;;;;;14.10;35.27;99095.47;4991510;28;19913;-89
2023/04/13 05:56:08;;;;;;;;;;;;;;;14.41;34.58;99102.22;4974885;28;19944;-88
2023/04/13 05:58:33;;;;;;;;;;;;;;;14.24;34.02;99097.59;5007283;28;20410;-87
2023/04/13 06:01:00;;;;;;;;;;;;;;;14.15;35.57;99102.34;4990615;28;20422;-88
2023/04/13 06:03:26;;;;;;;;;;;;;;;14.28;35.92;99105.38;4974651;28;19914;-87
2023/04/13 06:05:51;;;;;;;;;;;;;;;14.51;35.63;99101.78;4992276;28;19930;-87
2023/04/13 06:08:17;;;;;;;;;;;;;;;14.64;34.80;99103.97;4990555;28;19913;-87
2023/04/13 06:10:43;;;;;;;;;;;;;;;14.68;34.50;99106.44;5006673;28;19976;-88
2023/04/13 06:13:09;;;;;;;;;;;;;;;15.39;34.75;99091.94;4992017;28;20376;-87
2023/04/13 06:15:35;;;;;;;;;;;;;;;15.70;33.25;99094.09;4991454;28;19921;-88
2023/04/13 06:18:01;;;;;;;;;;;;;;;15.70;33.30;99094.09;4973938;28;19922;-88
2023/04/13 06:20:27;;;;;;;;;;;;;;;16.09;33.81;99085.22;4974613;28;20019;-88
2023/04/13 06:22:52;;;;;;;;;;;;;;;16.38;31.59;99084.78;5006399;28;20439;-86
2023/04/13 06:25:18;;;;;;;;;;;;;;;16.78;31.49;99085.47;4991897;28;20291;-87
2023/04/13 06:27:45;;;;;;;;;;;;;;;16.78;31.07;99088.13;4991109;28;19918;-88
2023/04/13 06:30:10;;;;;;;;;;;;;;;17.32;30.69;99088.06;4974135;28;20284;-89
2023/04/13 06:32:36;;;;;;;;;;;;;;;17.40;30.29;99087.66;4991438;28;19997;-87
2023/04/13 06:35:02;;;;;;;;;;;;;;;18.02;29.80;99087.91;4992083;28;19913;-87
2023/04/13 06:37:27;;;;;;;;;;;;;;;17.93;28.34;99085.75;4973658;28;19918;-87
2023/04/13 06:39:53;;;;;;;;;;;;;;;18.22;28.29;99084.13;4990265;28;20414;-87
2023/04/13 06:42:18;;;;;;;;;;;;;;;18.41;29.18;99082.16;4973572;28;19914;-87
2023/04/13 06:44:43;;;;;;;;;;;;;;;18.50;29.51;99088.75;4973550;28;19918;-87
2023/04/13 06:47:09;;;;;;;;;;;;;;;18.22;29.98;99087.66;4990971;28;20023;-86
2023/04/13 06:49:35;;;;;;;;;;;;;;;18.96;28.75;99088.78;4990062;28;20100;-88
2023/04/13 06:52:00;;;;;;;;;;;;;;;19.11;28.45;99083.50;4973920;28;20260;-88
2023/04/13 06:54:26;;;;;;;;;;;;;;;18.16;28.14;99084.47;5005963;28;19913;-88
2023/04/13 06:56:51;;;;;;;;;;;;;;;18.42;29.18;99088.34;4989872;28;20358;-88
2023/04/13 06:59:16;;;;;;;;;;;;;;;18.61;26.33;99089.03;4973253;28;19914;-89
2023/04/13 07:01:42;;;;;;;;;;;;;;;19.19;25.96;99083.88;4973583;28;20303;-89
2023/04/13 07:04:07;;;;;;;;;;;;;;;19.41;24.85;99077.22;4973381;28;19913;-89
2023/04/13 07:06:33;;;;;;;;;;;;;;;19.12;25.23;99080.72;4973688;28;19941;-88
2023/04/13 07:08:58;;;;;;;;;;;;;;;19.35;23.27;99078.47;4973445;28;20389;-88
2023/04/13 07:11:25;;;;;;;;;;;;;;;19.63;23.75;99072.28;4990440;28;19913;-89
2023/04/13 07:13:50;;;;;;;;;;;;;;;19.79;24.08;99082.91;4991401;28;19957;-89
2023/04/13 07:16:15;;;;;;;;;;;;;;;20.11;23.66;99077.34;4973654;28;19949;-88
2023/04/13 07:18:41;;;;;;;;;;;;;;;20.24;23.67;99082.75;4990005;28;19968;-89
2023/04/13 07:21:06;;;;;;;;;;;;;;;20.25;23.61;99081.81;5005996;28;19918;-89
2023/04/13 07:23:32;;;;;;;;;;;;;;;20.35;24.86;99080.22;5006235;28;19914;-88
2023/04/13 07:25:58;;;;;;;;;;;;;;;19.77;23.65;99075.94;5005872;28;20426;-89
2023/04/13 07:28:24;;;;;;;;;;;;;;;20.19;23.53;99072.34;4973338;28;19922;-90
2023/04/13 07:30:49;;;;;;;;;;;;;;;20.01;24.28;99073.53;4973829;28;19914;-88
2023/04/13 07:33:15;;;;;;;;;;;;;;;20.29;22.89;99069.06;4973872;28;19917;-88
2023/04/13 07:35:40;;;;;;;;;;;;;;;20.38;23.30;99063.97;5010105;28;19925;-88
2023/04/13 07:38:05;;;;;;;;;;;;;;;20.39;23.09;99067.53;4995246;28;20056;-91
2023/04/13 07:40:31;;;;;;;;;;;;;;;20.42;25.46;99061.97;4977458;28;20032;-88
2023/04/13 07:42:56;;;;;;;;;;;;;;;20.21;23.75;99066.88;4994553;28;20417;-89
2023/04/13 07:45:22;;;;;;;;;;;;;;;20.67;23.34;99055.00;4995003;28;20056;-88
2023/04/13 07:47:47;;;;;;;;;;;;;;;20.92;22.82;99051.53;4976969;28;20284;-88
2023/04/13 07:50:13;;;;;;;;;;;;;;;20.95;22.65;99053.16;4994469;28;19920;-87
2023/04/13 07:52:38;;;;;;;;;;;;;;;21.03;24.08;99061.50;4976719;28;20334;-88
2023/04/13 07:55:04;;;;;;;;;;;;;;;21.63;22.90;99047.50;4977317;28;19917;-88
2023/04/13 07:57:30;;;;;;;;;;;;;;;21.71;21.57;99048.78;5009178;28;19914;-88
2023/04/13 07:59:55;;;;;;;;;;;;;;;21.89;22.72;99043.91;4976593;28;19920;-88
2023/04/13 08:02:21;;;;;;;;;;;;;;;21.74;21.11;99045.88;4994587;28;19965;-88
2023/04/13 08:04:47;;;;;;;;;;;;;;;22.18;19.98;99045.34;4976155;28;20013;-88
2023/04/13 08:07:12;;;;;;;;;;;;;;;21.74;21.36;99044.03;4994277;28;19993;-88
2023/04/13 08:09:38;;;;;;;;;;;;;;;21.27;22.37;99033.00;4994076;28;19921;-88
2023/04/13 08:12:04;;;;;;;;;;;;;;;20.89;22.76;99036.50;4976148;28;20387;-88
2023/04/13 08:14:29;;;;;;;;;;;;;;;20.90;22.20;99038.22;4993989;28;19920;-88
2023/04/13 08:16:55;;;;;;;;;;;;;;;21.22;22.88;99040.50;4992028;28;19918;-89
2023/04/13 08:19:20;;;;;;;;;;;;;;;21.34;22.08;99036.09;5008783;28;19953;-90
2023/04/13 08:21:45;;;;;;;;;;;;;;;20.87;22.29;99033.06;4976907;28;20284;-91
2023/04/13 08:24:11;;;;;;;;;;;;;;;20.91;23.73;99026.53;4976725;28;19913;-89
2023/04/13 08:26:36;;;;;;;;;;;;;;;21.28;22.93;99029.34;4976085;28;19914;-89
2023/04/13 08:29:02;;;;;;;;;;;;;;;21.73;22.33;99025.38;5009335;28;19913;-89
2023/04/13 08:31:27;;;;;;;;;;;;;;;21.83;21.97;99026.44;5008974;28;19913;-88
2023/04/13 08:33:53;;;;;;;;;;;;;;;21.37;23.27;99024.31;4976410;28;19930;-89
2023/04/13 08:36:18;;;;;;;;;;;;;;;20.72;23.07;99023.38;4992352;28;20280;-89
2023/04/13 08:38:44;;;;;;;;;;;;;;;20.85;24.07;99024.28;4976385;28;19948;-89
2023/04/13 08:41:09;;;;;;;;;;;;;;;21.14;23.88;99013.34;4976167;28;19914;-90
2023/04/13 08:43:35;;;;;;;;;;;;;;;21.55;22.25;99017.69;4976596;28;19920;-89
2023/04/13 08:46:02;;;;;;;;;;;;;;;22.02;21.86;99012.50;4975467;28;19916;-90
2023/04/13 08:48:28;;;;;;;;;;;;;;;21.80;23.90;99010.53;5008253;28;20443;-89
2023/04/13 08:50:55;;;;;;;;;;;;;;;21.64;24.28;99000.03;4993791;28;20008;-89
2023/04/13 08:53:20;;;;;;;;;;;;;;;21.38;23.63;99002.75;5008197;28;20000;-89
2023/04/13 08:55:46;;;;;;;;;;;;;;;21.67;22.51;99002.50;4992288;28;20415;-89
2023/04/13 08:58:12;;;;;;;;;;;;;;;21.53;22.43;99002.63;5008532;28;20483;-88
2023/04/13 09:00:39;;;;;;;;;;;;;;;21.38;23.14;99002.75;4992832;28;20008;-87
2023/04/13 09:03:06;;;;;;;;;;;;;;;21.06;23.54;99003.16;4989698;28;19968;-91
2023/04/13 09:05:32;;;;;;;;;;;;;;;21.21;23.23;99013.78;4975102;28;19917;-86
2023/04/13 09:08:00;;;;;;;;;;;;;;;21.20;22.38;99002.19;4990261;28;20000;-87
2023/04/13 09:10:26;;;;;;;;;;;;;;;21.43;24.90;98999.72;4985521;28;19918;-90
2023/04/13 09:12:51;;;;;;;;;;;;;;;21.41;23.31;98993.59;4989202;28;20009;-90
2023/04/13 09:15:17;;;;;;;;;;;;;;;21.37;23.24;98992.97;4961631;28;20411;-88
2023/04/13 09:17:43;;;;;;;;;;;;;;;21.44;22.47;98990.69;4992848;28;19918;-87
2023/04/13 09:20:11;;;;;;;;;;;;;;;21.24;21.86;98995.66;4992035;28;20002;-86
2023/04/13 09:22:37;;;;;;;;;;;;;;;21.36;22.28;98998.44;4992690;28;19971;-91
2023/04/13 09:25:06;;;;;;;;;;;;;;;21.36;22.67;98988.56;4991600;28;19913;-90
2023/04/13 09:27:33;;;;;;;;;;;;;;;21.46;23.04;98986.94;4987144;28;20300;-89
2023/04/13 09:30:07;;;;;;;;;;;;;;;21.27;23.83;98984.72;4964804;28;19958;-90
2023/04/13 09:32:32;;;;;;;;;;;;;;;21.11;23.26;98984.06;4980409;28;19925;-88
2023/04/13 09:34:59;;;;;;;;;;;;;;;21.25;23.84;98975.06;4987443;28;19917;-91
2023/04/13 09:37:27;;;;;;;;;;;;;;;21.35;21.95;98969.91;4990205;28;19929;-92
2023/04/13 09:39:52;;;;;;;;;;;;;;;21.23;24.08;98967.13;4991304;28;19921;-90
2023/04/13 09:42:19;;;;;;;;;;;;;;;21.03;23.31;98970.34;4985522;28;19985;-87
2023/04/13 09:44:54;;;;;;;;;;;;;;;20.93;22.94;98967.47;4988988;28;19914;-90
2023/04/13 09:47:39;;;;;;;;;;;;;;;20.76;22.81;98965.94;4992531;28;20013;-92
2023/04/13 09:50:17;;;;;;;;;;;;;;;20.95;24.77;98970.88;4974129;28;19918;-89
2023/04/13 09:52:43;;;;;;;;;;;;;;;21.23;24.40;98969.81;4991939;28;20007;-88
2023/04/13 09:55:14;;;;;;;;;;;;;;;21.18;23.09;98966.59;4992151;28;19920;-89
2023/04/13 09:57:42;;;;;;;;;;;;;;;20.95;23.66;98964.69;4991417;28;19928;-92
2023/04/13 10:00:14;;;;;;;;;;;;;;;20.93;23.95;98962.09;4983881;28;20015;-91
2023/04/13 10:03:02;;;;;;;;;;;;;;;;;;;;;
2023/04/13 10:05:34;;;;;;;;;;;;;;;20.88;23.09;98954.38;4984658;28;19924;-89
2023/04/13 10:08:03;;;;;;;;;;;;;;;20.95;23.62;98951.28;4992322;28;19920;-92
2023/04/13 10:10:28;;;;;;;;;;;;;;;20.73;23.00;98948.25;4990791;28;19918;-90
2023/04/13 10:12:56;;;;;;;;;;;;;;;20.83;23.35;98943.09;4992508;28;19918;-89
2023/04/13 10:15:40;;;;;;;;;;;;;;;20.84;23.14;98936.78;4991963;28;19965;-91
2023/04/13 10:18:06;;;;;;;;;;;;;;;20.97;24.02;98939.47;5006686;28;19924;-91
2023/04/13 10:20:32;;;;;;;;;;;;;;;20.81;23.25;98926.28;4989936;28;19914;-91
2023/04/13 10:23:16;;;;;;;;;;;;;;;20.68;23.64;98922.72;4992728;28;19960;-93
2023/04/13 10:25:50;;;;;;;;;;;;;;;20.94;23.90;98926.28;4989818;28;19983;-91
2023/04/13 10:28:16;;;;;;;;;;;;;;;20.78;23.68;98915.78;4974334;28;19917;-90
2023/04/13 10:30:51;;;;;;;;;;;;;;;20.75;24.12;98918.66;4991973;28;20318;-88
2023/04/13 10:33:17;;;;;;;;;;;;;;;20.93;24.40;98914.69;4977694;28;19918;-90
2023/04/13 10:35:53;;;;;;;;;;;;;;;20.92;23.79;98915.66;4969697;28;20281;-91
2023/04/13 10:44:15;;;;;;;;;;;;;;;20.64;25.39;98894.41;4915661;29;19918;-90
2023/04/13 10:46:50;;;;;;;;;;;;;;;20.28;23.31;98904.00;4932704;29;19914;-94
2023/04/13 10:49:16;;;;;;;;;;;;;;;20.50;24.60;98912.28;4930895;29;20013;-86
2023/04/13 10:51:42;;;;;;;;;;;;;;;20.88;23.66;98900.78;4930588;29;20245;-85
2023/04/13 10:54:29;;;;;;;;;;;;;;;21.02;22.88;98891.75;4931435;29;20066;-92
2023/04/13 10:56:58;;;;;;;;;;;;;;;21.13;23.15;98895.47;4931484;29;19914;-91
2023/04/13 10:59:40;;;;;;;;;;;;;;;21.17;23.12;98895.16;4915714;29;19919;-94
2023/04/13 11:02:27;;;;;;;;;;;;;;;21.04;23.96;98887.13;4929728;29;19931;-90
2023/04/13 11:04:59;;;;;;;;;;;;;;;21.17;23.07;98897.00;4924964;29;19944;-91
2023/04/13 11:07:32;;;;;;;;;;;;;;;21.23;24.12;98889.34;4876402;29;19923;-93
2023/04/13 11:09:57;;;;;;;;;;;;;;;21.52;25.04;98891.78;4884103;29;19986;-89
2023/04/13 11:12:23;;;;;;;;;;;;;;;21.35;23.00;98882.25;4888974;29;20366;-90
2023/04/13 11:14:49;;;;;;;;;;;;;;;21.48;22.75;98886.72;4879143;29;19916;-92
2023/04/13 11:17:18;;;;;;;;;;;;;;;21.73;22.46;98875.91;4893359;29;20012;-89
2023/04/13 11:19:54;;;;;;;;;;;;;;;21.99;22.26;98879.34;4887774;29;19959;-93
2023/04/13 11:22:26;;;;;;;;;;;;;;;22.17;23.15;98879.78;4919232;29;19914;-94
2023/04/13 11:24:51;;;;;;;;;;;;;;;21.48;24.40;98878.69;4947715;29;19918;-90
2023/04/13 11:27:24;;;;;;;;;;;;;;;21.27;23.33;98877.44;4927911;29;19923;-93
2023/04/13 11:30:03;;;;;;;;;;;;;;;21.72;22.64;98871.53;4928528;29;20408;-89
2023/04/13 11:38:48;;;;;;;;;;;;;;;22.12;23.87;98859.63;4868938;29;20333;-93
2023/04/13 11:41:44;;;;;;;;;;;;;;;22.25;23.47;98855.03;4867830;29;19920;-94
2023/04/13 11:44:54;;;;;;;;;;;;;;;21.85;23.80;98859.88;4874953;29;19916;-93
2023/04/13 11:47:19;;;;;;;;;;;;;;;21.93;24.82;98857.47;4819532;29;19926;-89
2023/04/13 11:49:46;;;;;;;;;;;;;;;22.30;24.95;98852.00;4831903;29;19917;-90
2023/04/13 11:52:12;;;;;;;;;;;;;;;21.84;23.32;98856.31;4833715;29;20113;-94
2023/04/13 11:54:39;;;;;;;;;;;;;;;21.77;23.98;98855.09;4832866;29;19942;-88
2023/04/13 11:57:08;;;;;;;;;;;;;;;21.93;25.12;98850.25;4835844;29;19924;-93
2023/04/13 11:59:35;;;;;;;;;;;;;;;21.99;23.89;98851.66;4822379;29;19924;-90
2023/04/13 12:02:07;;;;;;;;;;;;;;;22.35;25.18;98849.81;4819917;29;19989;-95
2023/04/13 12:04:39;;;;;;;;;;;;;;;22.41;23.17;98843.97;4819318;29;19920;-94
2023/04/13 12:07:18;;;;;;;;;;;;;;;22.58;24.26;98841.81;4818771;29;19924;-92
2023/04/13 12:09:44;;;;;;;;;;;;;;;22.70;23.97;98840.84;4819459;29;20031;-88
2023/04/13 12:15:35;;;;;;;;;;;;;;;22.71;24.43;98835.34;4912743;29;20123;-93
2023/04/13 12:18:11;;;;;;;;;;;;;;;22.52;23.43;98827.91;4999076;28;20311;-92
2023/04/13 12:23:50;;;;;;;;;;;;;;;22.46;24.75;98809.56;4952949;29;19926;-88
2023/04/13 12:26:39;;;;;;;;;;;;;;;22.28;23.60;98819.03;4952589;28;20307;-90
2023/04/13 12:29:14;;;;;;;;;;;;;;;22.12;25.53;98817.53;4931742;29;20000;-92
2023/04/13 12:31:40;;;;;;;;;;;;;;;22.41;24.14;98811.75;4953117;29;19914;-92
2023/04/13 12:34:06;;;;;;;;;;;;;;;22.88;23.11;98817.88;4953168;29;19954;-91
2023/04/13 12:36:32;;;;;;;;;;;;;;;22.58;25.00;98812.25;4953247;29;19954;-91
2023/04/13 12:38:58;;;;;;;;;;;;;;;22.18;26.42;98816.16;4931753;29;20041;-88
2023/04/13 12:41:23;;;;;;;;;;;;;;;22.15;24.54;98809.22;4945172;29;19922;-90
2023/04/13 12:43:49;;;;;;;;;;;;;;;22.40;24.35;98803.78;4953141;29;19926;-92
2023/04/13 12:46:14;;;;;;;;;;;;;;;22.55;23.67;98805.28;4947658;29;19957;-93
2023/04/13 12:48:40;;;;;;;;;;;;;;;22.67;23.27;98803.47;4953333;29;20486;-92
2023/04/13 12:51:05;;;;;;;;;;;;;;;22.51;25.27;98807.38;4952925;29;19914;-91
2023/04/13 12:53:30;;;;;;;;;;;;;;;22.43;26.71;98804.44;4953013;29;19925;-91
2023/04/13 12:55:56;;;;;;;;;;;;;;;22.45;26.22;98799.78;4969317;28;19957;-91
2023/04/13 12:58:21;;;;;;;;;;;;;;;22.53;27.29;98804.56;4953480;29;19956;-91
2023/04/13 13:00:46;;;;;;;;;;;;;;;22.57;26.07;98795.28;4978486;28;20011;-91
2023/04/13 13:03:12;;;;;;;;;;;;;;;22.84;26.06;98800.28;4994191;28;19957;-91
2023/04/13 13:05:37;;;;;;;;;;;;;;;22.94;25.13;98800.41;4994291;28;20063;-93
2023/04/13 13:08:02;;;;;;;;;;;;;;;22.97;27.17;98796.59;4994005;28;20015;-92
2023/04/13 13:10:28;;;;;;;;;;;;;;;23.19;26.68;98785.00;4994020;28;19913;-93